sensor_id;sensor_type;location;lat;lon;timestamp;P1;durP1;ratioP1;P2;durP2;ratioP2
39518;SDS011;25200;53.394;10.414;2023-02-20T00:00:55;6.55;;;2.00;;
39518;SDS011;25200;53.394;10.414;2023-02-20T00:03:21;7.90;;;2.28;;
39518;SDS011;25200;53.394;10.414;2023-02-20T00:05:46;7.50;;;2.03;;
39518;SDS011;25200;53.394;10.414;2023-02-20T00:08:12;6.03;;;1.92;;
39518;SDS011;25200;53.394;10.414;2023-02-20T00:10:38;10.77;;;2.40;;
39518;SDS011;25200;53.394;10.414;2023-02-20T00:13:04;7.10;;;2.20;;
39518;SDS011;25200;53.394;10.414;2023-02-20T00:15:29;5.93;;;2.17;;
39518;SDS011;25200;53.394;10.414;2023-02-20T00:17:55;7.57;;;2.15;;
39518;SDS011;25200;53.394;10.414;2023-02-20T00:20:22;5.93;;;2.25;;
39518;SDS011;25200;53.394;10.414;2023-02-20T00:22:49;7.13;;;2.17;;
39518;SDS011;25200;53.394;10.414;2023-02-20T00:25:16;6.63;;;2.38;;
39518;SDS011;25200;53.394;10.414;2023-02-20T00:27:43;8.55;;;2.25;;
39518;SDS011;25200;53.394;10.414;2023-02-20T00:30:11;10.27;;;3.00;;
39518;SDS011;25200;53.394;10.414;2023-02-20T00:32:45;6.88;;;2.65;;
39518;SDS011;25200;53.394;10.414;2023-02-20T00:35:12;6.47;;;2.80;;
39518;SDS011;25200;53.394;10.414;2023-02-20T00:37:38;8.38;;;3.10;;
39518;SDS011;25200;53.394;10.414;2023-02-20T00:40:04;5.07;;;2.95;;
39518;SDS011;25200;53.394;10.414;2023-02-20T00:42:30;10.75;;;2.75;;
39518;SDS011;25200;53.394;10.414;2023-02-20T00:44:56;11.70;;;3.33;;
39518;SDS011;25200;53.394;10.414;2023-02-20T00:47:21;8.13;;;3.33;;
39518;SDS011;25200;53.394;10.414;2023-02-20T00:49:47;7.30;;;3.10;;
39518;SDS011;25200;53.394;10.414;2023-02-20T00:52:13;7.68;;;3.08;;
39518;SDS011;25200;53.394;10.414;2023-02-20T00:54:38;6.57;;;3.38;;
39518;SDS011;25200;53.394;10.414;2023-02-20T00:57:04;10.52;;;3.53;;
39518;SDS011;25200;53.394;10.414;2023-02-20T00:59:30;10.40;;;3.90;;
39518;SDS011;25200;53.394;10.414;2023-02-20T01:01:55;8.77;;;4.07;;
39518;SDS011;25200;53.394;10.414;2023-02-20T01:04:21;7.22;;;4.05;;
39518;SDS011;25200;53.394;10.414;2023-02-20T01:06:47;13.75;;;4.72;;
39518;SDS011;25200;53.394;10.414;2023-02-20T01:09:13;13.32;;;4.22;;
39518;SDS011;25200;53.394;10.414;2023-02-20T01:11:40;9.55;;;4.00;;
39518;SDS011;25200;53.394;10.414;2023-02-20T01:14:07;9.50;;;3.80;;
39518;SDS011;25200;53.394;10.414;2023-02-20T01:16:33;12.40;;;4.30;;
39518;SDS011;25200;53.394;10.414;2023-02-20T01:18:58;10.38;;;4.10;;
39518;SDS011;25200;53.394;10.414;2023-02-20T01:21:24;7.03;;;3.58;;
39518;SDS011;25200;53.394;10.414;2023-02-20T01:23:50;10.57;;;4.25;;
39518;SDS011;25200;53.394;10.414;2023-02-20T01:26:15;13.20;;;4.30;;
39518;SDS011;25200;53.394;10.414;2023-02-20T01:28:44;9.77;;;4.03;;
39518;SDS011;25200;53.394;10.414;2023-02-20T01:31:13;7.85;;;3.35;;
39518;SDS011;25200;53.394;10.414;2023-02-20T01:33:42;8.95;;;3.72;;
39518;SDS011;25200;53.394;10.414;2023-02-20T01:36:09;7.75;;;3.63;;
39518;SDS011;25200;53.394;10.414;2023-02-20T01:38:35;9.45;;;3.75;;
39518;SDS011;25200;53.394;10.414;2023-02-20T01:41:01;6.95;;;3.15;;
39518;SDS011;25200;53.394;10.414;2023-02-20T01:43:26;7.43;;;3.78;;
39518;SDS011;25200;53.394;10.414;2023-02-20T01:45:52;6.93;;;2.78;;
39518;SDS011;25200;53.394;10.414;2023-02-20T01:48:22;8.80;;;3.38;;
39518;SDS011;25200;53.394;10.414;2023-02-20T01:50:51;6.60;;;3.42;;
39518;SDS011;25200;53.394;10.414;2023-02-20T01:53:21;6.20;;;3.03;;
39518;SDS011;25200;53.394;10.414;2023-02-20T01:55:53;6.00;;;3.30;;
39518;SDS011;25200;53.394;10.414;2023-02-20T01:58:23;9.50;;;3.55;;
39518;SDS011;25200;53.394;10.414;2023-02-20T02:00:55;9.70;;;3.42;;
39518;SDS011;25200;53.394;10.414;2023-02-20T02:03:24;6.55;;;3.00;;
39518;SDS011;25200;53.394;10.414;2023-02-20T02:05:56;8.27;;;3.17;;
39518;SDS011;25200;53.394;10.414;2023-02-20T02:08:24;5.13;;;3.10;;
39518;SDS011;25200;53.394;10.414;2023-02-20T02:13:28;6.95;;;3.10;;
39518;SDS011;25200;53.394;10.414;2023-02-20T02:18:50;8.93;;;3.50;;
39518;SDS011;25200;53.394;10.414;2023-02-20T02:28:12;10.68;;;3.28;;
39518;SDS011;25200;53.394;10.414;2023-02-20T02:48:01;7.57;;;2.95;;
39518;SDS011;25200;53.394;10.414;2023-02-20T02:50:33;7.10;;;3.40;;
39518;SDS011;25200;53.394;10.414;2023-02-20T02:53:03;6.75;;;3.28;;
39518;SDS011;25200;53.394;10.414;2023-02-20T02:55:32;6.88;;;3.17;;
39518;SDS011;25200;53.394;10.414;2023-02-20T02:57:59;6.68;;;3.17;;
39518;SDS011;25200;53.394;10.414;2023-02-20T03:00:26;8.30;;;3.38;;
39518;SDS011;25200;53.394;10.414;2023-02-20T03:03:09;7.43;;;2.75;;
39518;SDS011;25200;53.394;10.414;2023-02-20T03:06:02;6.82;;;3.30;;
39518;SDS011;25200;53.394;10.414;2023-02-20T03:11:21;6.57;;;3.17;;
39518;SDS011;25200;53.394;10.414;2023-02-20T03:16:40;11.82;;;3.40;;
39518;SDS011;25200;53.394;10.414;2023-02-20T03:19:20;6.47;;;3.40;;
39518;SDS011;25200;53.394;10.414;2023-02-20T03:22:00;8.20;;;3.90;;
39518;SDS011;25200;53.394;10.414;2023-02-20T03:24:29;7.40;;;3.33;;
39518;SDS011;25200;53.394;10.414;2023-02-20T03:27:18;9.40;;;3.55;;
39518;SDS011;25200;53.394;10.414;2023-02-20T03:29:43;13.27;;;3.83;;
39518;SDS011;25200;53.394;10.414;2023-02-20T03:32:11;6.50;;;3.15;;
39518;SDS011;25200;53.394;10.414;2023-02-20T03:34:58;9.10;;;3.83;;
39518;SDS011;25200;53.394;10.414;2023-02-20T03:37:44;9.07;;;4.05;;
39518;SDS011;25200;53.394;10.414;2023-02-20T03:40:30;9.82;;;3.92;;
39518;SDS011;25200;53.394;10.414;2023-02-20T03:43:16;8.80;;;3.80;;
39518;SDS011;25200;53.394;10.414;2023-02-20T03:46:11;8.27;;;3.83;;
39518;SDS011;25200;53.394;10.414;2023-02-20T03:49:12;12.93;;;5.25;;
39518;SDS011;25200;53.394;10.414;2023-02-20T03:51:35;9.40;;;3.70;;
39518;SDS011;25200;53.394;10.414;2023-02-20T03:54:01;8.43;;;4.47;;
39518;SDS011;25200;53.394;10.414;2023-02-20T03:56:29;8.57;;;4.07;;
39518;SDS011;25200;53.394;10.414;2023-02-20T03:59:10;11.20;;;4.63;;
39518;SDS011;25200;53.394;10.414;2023-02-20T04:01:47;9.07;;;4.53;;
39518;SDS011;25200;53.394;10.414;2023-02-20T04:04:18;8.70;;;4.72;;
39518;SDS011;25200;53.394;10.414;2023-02-20T04:06:47;11.20;;;4.80;;
39518;SDS011;25200;53.394;10.414;2023-02-20T04:09:20;10.00;;;3.97;;
39518;SDS011;25200;53.394;10.414;2023-02-20T04:14:22;10.75;;;4.30;;
39518;SDS011;25200;53.394;10.414;2023-02-20T04:16:54;9.85;;;4.95;;
39518;SDS011;25200;53.394;10.414;2023-02-20T04:19:22;11.32;;;4.97;;
39518;SDS011;25200;53.394;10.414;2023-02-20T04:21:52;8.50;;;4.65;;
39518;SDS011;25200;53.394;10.414;2023-02-20T04:27:05;10.63;;;4.32;;
39518;SDS011;25200;53.394;10.414;2023-02-20T04:29:31;8.50;;;5.00;;
39518;SDS011;25200;53.394;10.414;2023-02-20T04:31:57;9.05;;;5.05;;
39518;SDS011;25200;53.394;10.414;2023-02-20T04:34:23;9.90;;;5.28;;
39518;SDS011;25200;53.394;10.414;2023-02-20T04:36:50;10.43;;;4.97;;
39518;SDS011;25200;53.394;10.414;2023-02-20T04:39:30;11.95;;;5.07;;
39518;SDS011;25200;53.394;10.414;2023-02-20T04:41:55;11.38;;;5.72;;
39518;SDS011;25200;53.394;10.414;2023-02-20T04:44:21;12.63;;;5.63;;
39518;SDS011;25200;53.394;10.414;2023-02-20T04:46:56;10.30;;;5.47;;
39518;SDS011;25200;53.394;10.414;2023-02-20T04:49:26;12.20;;;5.20;;
39518;SDS011;25200;53.394;10.414;2023-02-20T04:51:52;11.55;;;5.43;;
39518;SDS011;25200;53.394;10.414;2023-02-20T04:54:18;12.60;;;6.00;;
39518;SDS011;25200;53.394;10.414;2023-02-20T04:56:44;10.73;;;5.80;;
39518;SDS011;25200;53.394;10.414;2023-02-20T04:59:10;10.82;;;5.50;;
39518;SDS011;25200;53.394;10.414;2023-02-20T05:01:36;13.73;;;6.03;;
39518;SDS011;25200;53.394;10.414;2023-02-20T05:04:01;12.13;;;6.20;;
39518;SDS011;25200;53.394;10.414;2023-02-20T05:06:27;13.18;;;6.07;;
39518;SDS011;25200;53.394;10.414;2023-02-20T05:08:53;14.25;;;6.50;;
39518;SDS011;25200;53.394;10.414;2023-02-20T05:11:19;12.68;;;6.43;;
39518;SDS011;25200;53.394;10.414;2023-02-20T05:13:44;12.32;;;6.55;;
39518;SDS011;25200;53.394;10.414;2023-02-20T05:16:10;12.43;;;6.18;;
39518;SDS011;25200;53.394;10.414;2023-02-20T05:18:37;14.30;;;6.70;;
39518;SDS011;25200;53.394;10.414;2023-02-20T05:21:04;13.10;;;6.93;;
39518;SDS011;25200;53.394;10.414;2023-02-20T05:23:48;12.55;;;7.10;;
39518;SDS011;25200;53.394;10.414;2023-02-20T05:26:18;14.50;;;8.13;;
39518;SDS011;25200;53.394;10.414;2023-02-20T05:28:45;17.88;;;7.88;;
39518;SDS011;25200;53.394;10.414;2023-02-20T05:31:11;14.68;;;7.25;;
39518;SDS011;25200;53.394;10.414;2023-02-20T05:33:38;12.27;;;6.68;;
39518;SDS011;25200;53.394;10.414;2023-02-20T05:36:04;13.73;;;7.63;;
39518;SDS011;25200;53.394;10.414;2023-02-20T05:38:30;16.08;;;7.95;;
39518;SDS011;25200;53.394;10.414;2023-02-20T05:40:55;14.15;;;7.55;;
39518;SDS011;25200;53.394;10.414;2023-02-20T05:43:21;15.43;;;7.78;;
39518;SDS011;25200;53.394;10.414;2023-02-20T05:45:47;15.30;;;7.40;;
39518;SDS011;25200;53.394;10.414;2023-02-20T05:48:13;16.42;;;8.38;;
39518;SDS011;25200;53.394;10.414;2023-02-20T05:50:40;16.77;;;8.57;;
39518;SDS011;25200;53.394;10.414;2023-02-20T05:53:06;15.00;;;8.50;;
39518;SDS011;25200;53.394;10.414;2023-02-20T05:55:32;13.48;;;6.97;;
39518;SDS011;25200;53.394;10.414;2023-02-20T05:57:58;16.65;;;7.60;;
39518;SDS011;25200;53.394;10.414;2023-02-20T06:00:24;11.95;;;6.25;;
39518;SDS011;25200;53.394;10.414;2023-02-20T06:02:50;17.05;;;7.57;;
39518;SDS011;25200;53.394;10.414;2023-02-20T06:05:16;17.25;;;8.75;;
39518;SDS011;25200;53.394;10.414;2023-02-20T06:07:43;16.30;;;7.82;;
39518;SDS011;25200;53.394;10.414;2023-02-20T06:10:09;16.90;;;6.85;;
39518;SDS011;25200;53.394;10.414;2023-02-20T06:12:35;13.05;;;6.80;;
39518;SDS011;25200;53.394;10.414;2023-02-20T06:15:00;11.98;;;6.78;;
39518;SDS011;25200;53.394;10.414;2023-02-20T06:17:27;16.33;;;6.97;;
39518;SDS011;25200;53.394;10.414;2023-02-20T06:19:54;20.70;;;8.48;;
39518;SDS011;25200;53.394;10.414;2023-02-20T06:22:20;17.10;;;8.90;;
39518;SDS011;25200;53.394;10.414;2023-02-20T06:24:46;16.70;;;8.18;;
39518;SDS011;25200;53.394;10.414;2023-02-20T06:27:12;16.00;;;7.85;;
39518;SDS011;25200;53.394;10.414;2023-02-20T06:29:39;17.35;;;8.55;;
39518;SDS011;25200;53.394;10.414;2023-02-20T06:32:05;18.27;;;8.30;;
39518;SDS011;25200;53.394;10.414;2023-02-20T06:34:30;18.48;;;8.98;;
39518;SDS011;25200;53.394;10.414;2023-02-20T06:36:58;16.48;;;8.23;;
39518;SDS011;25200;53.394;10.414;2023-02-20T06:39:28;19.13;;;8.55;;
39518;SDS011;25200;53.394;10.414;2023-02-20T06:41:54;15.48;;;7.55;;
39518;SDS011;25200;53.394;10.414;2023-02-20T06:44:20;15.75;;;8.00;;
39518;SDS011;25200;53.394;10.414;2023-02-20T06:46:46;17.88;;;8.82;;
39518;SDS011;25200;53.394;10.414;2023-02-20T06:49:12;21.10;;;9.15;;
39518;SDS011;25200;53.394;10.414;2023-02-20T06:51:38;15.57;;;8.40;;
39518;SDS011;25200;53.394;10.414;2023-02-20T06:54:04;18.77;;;8.70;;
39518;SDS011;25200;53.394;10.414;2023-02-20T06:56:32;16.77;;;8.15;;
39518;SDS011;25200;53.394;10.414;2023-02-20T06:58:59;16.15;;;8.50;;
39518;SDS011;25200;53.394;10.414;2023-02-20T07:01:29;16.92;;;8.27;;
39518;SDS011;25200;53.394;10.414;2023-02-20T07:03:58;17.23;;;8.32;;
39518;SDS011;25200;53.394;10.414;2023-02-20T07:06:24;17.70;;;8.60;;
39518;SDS011;25200;53.394;10.414;2023-02-20T07:08:50;17.60;;;8.30;;
39518;SDS011;25200;53.394;10.414;2023-02-20T07:11:17;17.70;;;8.10;;
39518;SDS011;25200;53.394;10.414;2023-02-20T07:13:45;17.48;;;9.25;;
39518;SDS011;25200;53.394;10.414;2023-02-20T07:16:11;18.25;;;10.05;;
39518;SDS011;25200;53.394;10.414;2023-02-20T07:18:37;17.48;;;9.68;;
39518;SDS011;25200;53.394;10.414;2023-02-20T07:21:03;21.42;;;10.13;;
39518;SDS011;25200;53.394;10.414;2023-02-20T07:23:29;19.90;;;10.00;;
39518;SDS011;25200;53.394;10.414;2023-02-20T07:25:55;17.73;;;9.18;;
39518;SDS011;25200;53.394;10.414;2023-02-20T07:28:21;18.05;;;9.25;;
39518;SDS011;25200;53.394;10.414;2023-02-20T07:30:47;17.60;;;8.98;;
39518;SDS011;25200;53.394;10.414;2023-02-20T07:33:13;21.60;;;10.05;;
39518;SDS011;25200;53.394;10.414;2023-02-20T07:35:39;22.60;;;11.27;;
39518;SDS011;25200;53.394;10.414;2023-02-20T07:38:05;23.00;;;10.98;;
39518;SDS011;25200;53.394;10.414;2023-02-20T07:40:31;17.60;;;9.77;;
39518;SDS011;25200;53.394;10.414;2023-02-20T07:42:57;20.98;;;11.80;;
39518;SDS011;25200;53.394;10.414;2023-02-20T07:45:23;19.05;;;10.27;;
39518;SDS011;25200;53.394;10.414;2023-02-20T07:47:49;22.92;;;10.63;;
39518;SDS011;25200;53.394;10.414;2023-02-20T07:50:15;17.92;;;9.40;;
39518;SDS011;25200;53.394;10.414;2023-02-20T07:52:41;17.95;;;9.80;;
39518;SDS011;25200;53.394;10.414;2023-02-20T07:55:08;22.52;;;11.35;;
39518;SDS011;25200;53.394;10.414;2023-02-20T07:57:35;20.48;;;11.00;;
39518;SDS011;25200;53.394;10.414;2023-02-20T08:00:02;24.52;;;12.98;;
39518;SDS011;25200;53.394;10.414;2023-02-20T08:02:28;22.63;;;13.20;;
39518;SDS011;25200;53.394;10.414;2023-02-20T08:04:54;24.15;;;12.30;;
39518;SDS011;25200;53.394;10.414;2023-02-20T08:07:20;24.50;;;13.20;;
39518;SDS011;25200;53.394;10.414;2023-02-20T08:09:45;26.13;;;12.45;;
39518;SDS011;25200;53.394;10.414;2023-02-20T08:12:11;23.25;;;13.20;;
39518;SDS011;25200;53.394;10.414;2023-02-20T08:14:37;27.73;;;12.52;;
39518;SDS011;25200;53.394;10.414;2023-02-20T08:17:03;23.77;;;12.70;;
39518;SDS011;25200;53.394;10.414;2023-02-20T08:19:29;24.67;;;13.95;;
39518;SDS011;25200;53.394;10.414;2023-02-20T08:21:54;22.13;;;12.75;;
39518;SDS011;25200;53.394;10.414;2023-02-20T08:24:20;23.38;;;13.45;;
39518;SDS011;25200;53.394;10.414;2023-02-20T08:26:46;24.35;;;13.50;;
39518;SDS011;25200;53.394;10.414;2023-02-20T08:29:13;28.50;;;16.55;;
39518;SDS011;25200;53.394;10.414;2023-02-20T08:31:40;27.58;;;14.25;;
39518;SDS011;25200;53.394;10.414;2023-02-20T08:34:06;24.50;;;13.48;;
39518;SDS011;25200;53.394;10.414;2023-02-20T08:36:32;27.25;;;14.93;;
39518;SDS011;25200;53.394;10.414;2023-02-20T08:38:59;27.85;;;13.05;;
39518;SDS011;25200;53.394;10.414;2023-02-20T08:41:25;29.70;;;16.33;;
39518;SDS011;25200;53.394;10.414;2023-02-20T08:43:51;26.55;;;14.65;;
39518;SDS011;25200;53.394;10.414;2023-02-20T08:46:17;29.85;;;13.35;;
39518;SDS011;25200;53.394;10.414;2023-02-20T08:48:43;28.15;;;14.55;;
39518;SDS011;25200;53.394;10.414;2023-02-20T08:51:09;25.08;;;14.07;;
39518;SDS011;25200;53.394;10.414;2023-02-20T08:53:36;24.17;;;12.95;;
39518;SDS011;25200;53.394;10.414;2023-02-20T08:56:03;27.50;;;15.05;;
39518;SDS011;25200;53.394;10.414;2023-02-20T08:58:29;30.05;;;15.25;;
39518;SDS011;25200;53.394;10.414;2023-02-20T09:00:55;28.50;;;13.65;;
39518;SDS011;25200;53.394;10.414;2023-02-20T09:03:21;27.70;;;13.07;;
39518;SDS011;25200;53.394;10.414;2023-02-20T09:05:47;32.55;;;17.08;;
39518;SDS011;25200;53.394;10.414;2023-02-20T09:08:13;28.23;;;14.73;;
39518;SDS011;25200;53.394;10.414;2023-02-20T09:10:39;30.40;;;16.83;;
39518;SDS011;25200;53.394;10.414;2023-02-20T09:13:04;33.72;;;16.33;;
39518;SDS011;25200;53.394;10.414;2023-02-20T09:15:30;34.65;;;17.83;;
39518;SDS011;25200;53.394;10.414;2023-02-20T09:18:02;30.42;;;16.50;;
39518;SDS011;25200;53.394;10.414;2023-02-20T09:20:29;36.28;;;19.15;;
39518;SDS011;25200;53.394;10.414;2023-02-20T09:22:56;31.85;;;17.08;;
39518;SDS011;25200;53.394;10.414;2023-02-20T09:25:24;35.25;;;17.65;;
39518;SDS011;25200;53.394;10.414;2023-02-20T09:27:49;31.50;;;15.82;;
39518;SDS011;25200;53.394;10.414;2023-02-20T09:30:16;41.42;;;18.05;;
39518;SDS011;25200;53.394;10.414;2023-02-20T09:32:46;36.75;;;19.02;;
39518;SDS011;25200;53.394;10.414;2023-02-20T09:35:33;37.80;;;17.83;;
39518;SDS011;25200;53.394;10.414;2023-02-20T09:37:58;32.38;;;16.30;;
39518;SDS011;25200;53.394;10.414;2023-02-20T09:40:25;40.55;;;17.80;;
39518;SDS011;25200;53.394;10.414;2023-02-20T09:46:01;29.23;;;15.98;;
39518;SDS011;25200;53.394;10.414;2023-02-20T09:51:34;51.20;;;25.00;;
39518;SDS011;25200;53.394;10.414;2023-02-20T09:54:07;56.47;;;28.48;;
39518;SDS011;25200;53.394;10.414;2023-02-20T09:56:39;39.65;;;21.05;;
39518;SDS011;25200;53.394;10.414;2023-02-20T10:04:47;65.25;;;30.17;;
39518;SDS011;25200;53.394;10.414;2023-02-20T10:07:23;50.65;;;26.98;;
39518;SDS011;25200;53.394;10.414;2023-02-20T10:09:51;119.03;;;44.33;;
39518;SDS011;25200;53.394;10.414;2023-02-20T10:12:21;53.35;;;26.35;;
39518;SDS011;25200;53.394;10.414;2023-02-20T10:19:54;182.10;;;68.72;;
39518;SDS011;25200;53.394;10.414;2023-02-20T10:25:42;207.20;;;64.72;;
39518;SDS011;25200;53.394;10.414;2023-02-20T10:28:16;52.80;;;23.55;;
39518;SDS011;25200;53.394;10.414;2023-02-20T10:33:44;64.82;;;31.65;;
39518;SDS011;25200;53.394;10.414;2023-02-20T10:36:24;69.93;;;37.30;;
39518;SDS011;25200;53.394;10.414;2023-02-20T10:38:58;69.88;;;37.92;;
39518;SDS011;25200;53.394;10.414;2023-02-20T10:46:28;43.10;;;18.45;;
39518;SDS011;25200;53.394;10.414;2023-02-20T10:49:02;48.67;;;21.33;;
39518;SDS011;25200;53.394;10.414;2023-02-20T10:51:37;45.13;;;19.38;;
39518;SDS011;25200;53.394;10.414;2023-02-20T10:54:30;49.10;;;20.05;;
39518;SDS011;25200;53.394;10.414;2023-02-20T10:59:43;43.45;;;18.50;;
39518;SDS011;25200;53.394;10.414;2023-02-20T11:02:15;58.72;;;21.80;;
39518;SDS011;25200;53.394;10.414;2023-02-20T11:04:45;45.67;;;16.63;;
39518;SDS011;25200;53.394;10.414;2023-02-20T11:07:23;40.78;;;18.08;;
39518;SDS011;25200;53.394;10.414;2023-02-20T11:09:50;38.38;;;16.15;;
39518;SDS011;25200;53.394;10.414;2023-02-20T11:12:27;42.92;;;18.92;;
39518;SDS011;25200;53.394;10.414;2023-02-20T11:15:04;40.75;;;16.50;;
39518;SDS011;25200;53.394;10.414;2023-02-20T11:17:36;36.28;;;17.02;;
39518;SDS011;25200;53.394;10.414;2023-02-20T11:20:03;34.83;;;16.67;;
39518;SDS011;25200;53.394;10.414;2023-02-20T11:22:41;37.47;;;16.60;;
39518;SDS011;25200;53.394;10.414;2023-02-20T11:27:53;35.20;;;14.77;;
39518;SDS011;25200;53.394;10.414;2023-02-20T11:30:23;36.38;;;14.70;;
39518;SDS011;25200;53.394;10.414;2023-02-20T11:33:41;34.10;;;15.55;;
39518;SDS011;25200;53.394;10.414;2023-02-20T11:35:50;25.38;;;12.00;;
39518;SDS011;25200;53.394;10.414;2023-02-20T11:40:47;31.90;;;13.32;;
39518;SDS011;25200;53.394;10.414;2023-02-20T11:46:05;27.80;;;13.00;;
39518;SDS011;25200;53.394;10.414;2023-02-20T11:49:05;27.70;;;12.15;;
39518;SDS011;25200;53.394;10.414;2023-02-20T12:01:53;22.20;;;8.65;;
39518;SDS011;25200;53.394;10.414;2023-02-20T12:04:19;20.30;;;9.48;;
39518;SDS011;25200;53.394;10.414;2023-02-20T12:06:48;14.98;;;8.25;;
39518;SDS011;25200;53.394;10.414;2023-02-20T12:09:21;23.42;;;8.43;;
39518;SDS011;25200;53.394;10.414;2023-02-20T12:11:51;19.27;;;9.75;;
39518;SDS011;25200;53.394;10.414;2023-02-20T12:14:19;20.23;;;7.82;;
39518;SDS011;25200;53.394;10.414;2023-02-20T12:21:58;13.05;;;6.30;;
39518;SDS011;25200;53.394;10.414;2023-02-20T12:27:17;11.05;;;5.60;;
39518;SDS011;25200;53.394;10.414;2023-02-20T12:41:56;13.25;;;5.43;;
39518;SDS011;25200;53.394;10.414;2023-02-20T12:47:16;13.65;;;4.88;;
39518;SDS011;25200;53.394;10.414;2023-02-20T12:50:06;10.00;;;5.03;;
39518;SDS011;25200;53.394;10.414;2023-02-20T12:58:29;13.52;;;4.78;;
39518;SDS011;25200;53.394;10.414;2023-02-20T13:01:08;11.45;;;4.50;;
39518;SDS011;25200;53.394;10.414;2023-02-20T13:06:41;9.35;;;3.70;;
39518;SDS011;25200;53.394;10.414;2023-02-20T13:09:17;11.27;;;5.10;;
39518;SDS011;25200;53.394;10.414;2023-02-20T13:11:49;8.93;;;4.32;;
39518;SDS011;25200;53.394;10.414;2023-02-20T13:30:36;12.68;;;3.63;;
39518;SDS011;25200;53.394;10.414;2023-02-20T13:33:10;12.05;;;3.65;;
39518;SDS011;25200;53.394;10.414;2023-02-20T13:38:16;9.65;;;3.83;;
39518;SDS011;25200;53.394;10.414;2023-02-20T13:45:47;11.38;;;3.83;;
39518;SDS011;25200;53.394;10.414;2023-02-20T13:56:16;9.82;;;4.50;;
39518;SDS011;25200;53.394;10.414;2023-02-20T13:58:43;9.50;;;4.20;;
39518;SDS011;25200;53.394;10.414;2023-02-20T14:01:10;10.30;;;4.18;;
39518;SDS011;25200;53.394;10.414;2023-02-20T14:03:36;12.00;;;4.35;;
39518;SDS011;25200;53.394;10.414;2023-02-20T14:06:15;11.90;;;4.03;;
39518;SDS011;25200;53.394;10.414;2023-02-20T14:08:43;10.65;;;4.00;;
39518;SDS011;25200;53.394;10.414;2023-02-20T14:11:11;7.65;;;4.00;;
39518;SDS011;25200;53.394;10.414;2023-02-20T14:16:29;11.77;;;3.70;;
39518;SDS011;25200;53.394;10.414;2023-02-20T14:19:03;9.23;;;3.85;;
39518;SDS011;25200;53.394;10.414;2023-02-20T14:21:34;13.65;;;4.55;;
39518;SDS011;25200;53.394;10.414;2023-02-20T14:24:12;10.27;;;4.53;;
39518;SDS011;25200;53.394;10.414;2023-02-20T14:26:41;12.55;;;4.65;;
39518;SDS011;25200;53.394;10.414;2023-02-20T14:29:18;11.65;;;5.20;;
39518;SDS011;25200;53.394;10.414;2023-02-20T14:31:52;16.67;;;4.88;;
39518;SDS011;25200;53.394;10.414;2023-02-20T14:34:28;7.38;;;3.78;;
39518;SDS011;25200;53.394;10.414;2023-02-20T14:42:14;14.05;;;5.00;;
39518;SDS011;25200;53.394;10.414;2023-02-20T14:44:45;13.98;;;4.53;;
39518;SDS011;25200;53.394;10.414;2023-02-20T14:47:14;13.55;;;6.05;;
39518;SDS011;25200;53.394;10.414;2023-02-20T14:49:42;27.65;;;8.73;;
39518;SDS011;25200;53.394;10.414;2023-02-20T14:52:21;20.33;;;9.15;;
39518;SDS011;25200;53.394;10.414;2023-02-20T14:54:58;25.30;;;10.60;;
39518;SDS011;25200;53.394;10.414;2023-02-20T14:57:26;17.20;;;7.28;;
39518;SDS011;25200;53.394;10.414;2023-02-20T15:02:57;27.38;;;9.55;;
39518;SDS011;25200;53.394;10.414;2023-02-20T15:05:28;10.65;;;4.63;;
39518;SDS011;25200;53.394;10.414;2023-02-20T15:08:00;11.95;;;6.53;;
39518;SDS011;25200;53.394;10.414;2023-02-20T15:10:48;15.07;;;5.97;;
39518;SDS011;25200;53.394;10.414;2023-02-20T15:13:25;16.23;;;10.25;;
39518;SDS011;25200;53.394;10.414;2023-02-20T15:16:05;13.45;;;9.15;;
39518;SDS011;25200;53.394;10.414;2023-02-20T15:18:41;18.95;;;9.05;;
39518;SDS011;25200;53.394;10.414;2023-02-20T15:21:07;17.40;;;8.35;;
39518;SDS011;25200;53.394;10.414;2023-02-20T15:23:39;11.15;;;4.93;;
39518;SDS011;25200;53.394;10.414;2023-02-20T15:26:26;10.98;;;4.65;;
39518;SDS011;25200;53.394;10.414;2023-02-20T15:31:57;14.40;;;4.80;;
39518;SDS011;25200;53.394;10.414;2023-02-20T15:34:24;12.13;;;3.00;;
39518;SDS011;25200;53.394;10.414;2023-02-20T15:36:55;13.30;;;5.15;;
39518;SDS011;25200;53.394;10.414;2023-02-20T15:39:22;10.75;;;4.20;;
39518;SDS011;25200;53.394;10.414;2023-02-20T15:41:48;10.90;;;4.75;;
39518;SDS011;25200;53.394;10.414;2023-02-20T15:44:14;15.10;;;5.47;;
39518;SDS011;25200;53.394;10.414;2023-02-20T15:46:40;11.70;;;5.13;;
39518;SDS011;25200;53.394;10.414;2023-02-20T15:49:06;15.35;;;8.90;;
39518;SDS011;25200;53.394;10.414;2023-02-20T15:51:33;15.77;;;8.55;;
39518;SDS011;25200;53.394;10.414;2023-02-20T15:54:02;19.13;;;10.50;;
39518;SDS011;25200;53.394;10.414;2023-02-20T15:56:30;13.45;;;5.50;;
39518;SDS011;25200;53.394;10.414;2023-02-20T15:59:02;21.45;;;7.60;;
39518;SDS011;25200;53.394;10.414;2023-02-20T16:01:31;18.52;;;8.23;;
39518;SDS011;25200;53.394;10.414;2023-02-20T16:03:57;18.45;;;7.78;;
39518;SDS011;25200;53.394;10.414;2023-02-20T16:06:23;17.20;;;6.38;;
39518;SDS011;25200;53.394;10.414;2023-02-20T16:08:49;22.92;;;9.45;;
39518;SDS011;25200;53.394;10.414;2023-02-20T16:11:17;13.63;;;6.15;;
39518;SDS011;25200;53.394;10.414;2023-02-20T16:13:44;12.00;;;4.90;;
39518;SDS011;25200;53.394;10.414;2023-02-20T16:19:09;13.85;;;4.68;;
39518;SDS011;25200;53.394;10.414;2023-02-20T16:21:40;9.82;;;4.50;;
39518;SDS011;25200;53.394;10.414;2023-02-20T16:24:06;12.68;;;5.10;;
39518;SDS011;25200;53.394;10.414;2023-02-20T16:26:32;12.50;;;5.10;;
39518;SDS011;25200;53.394;10.414;2023-02-20T16:29:01;13.85;;;5.38;;
39518;SDS011;25200;53.394;10.414;2023-02-20T16:34:20;14.02;;;5.63;;
39518;SDS011;25200;53.394;10.414;2023-02-20T16:36:48;15.35;;;5.20;;
39518;SDS011;25200;53.394;10.414;2023-02-20T16:39:14;16.08;;;4.80;;
39518;SDS011;25200;53.394;10.414;2023-02-20T16:41:39;10.00;;;4.55;;
39518;SDS011;25200;53.394;10.414;2023-02-20T16:44:11;19.48;;;5.28;;
39518;SDS011;25200;53.394;10.414;2023-02-20T16:46:38;13.90;;;5.00;;
39518;SDS011;25200;53.394;10.414;2023-02-20T16:49:04;14.05;;;5.75;;
39518;SDS011;25200;53.394;10.414;2023-02-20T16:51:29;14.85;;;6.93;;
39518;SDS011;25200;53.394;10.414;2023-02-20T16:53:56;16.05;;;9.43;;
39518;SDS011;25200;53.394;10.414;2023-02-20T16:56:22;15.05;;;6.97;;
39518;SDS011;25200;53.394;10.414;2023-02-20T16:58:48;12.77;;;5.75;;
39518;SDS011;25200;53.394;10.414;2023-02-20T17:01:13;26.65;;;18.02;;
39518;SDS011;25200;53.394;10.414;2023-02-20T17:03:39;18.77;;;9.43;;
39518;SDS011;25200;53.394;10.414;2023-02-20T17:06:05;19.70;;;9.30;;
39518;SDS011;25200;53.394;10.414;2023-02-20T17:08:30;15.93;;;6.93;;
39518;SDS011;25200;53.394;10.414;2023-02-20T17:10:56;21.00;;;7.22;;
39518;SDS011;25200;53.394;10.414;2023-02-20T17:13:22;14.23;;;6.22;;
39518;SDS011;25200;53.394;10.414;2023-02-20T17:15:47;11.55;;;5.38;;
39518;SDS011;25200;53.394;10.414;2023-02-20T17:18:13;10.35;;;5.75;;
39518;SDS011;25200;53.394;10.414;2023-02-20T17:20:39;10.30;;;4.85;;
39518;SDS011;25200;53.394;10.414;2023-02-20T17:23:05;11.80;;;5.30;;
39518;SDS011;25200;53.394;10.414;2023-02-20T17:25:32;14.20;;;5.00;;